Time;durP1;ratioP1;P1;durP2;ratioP2;P2;SDS_P1;SDS_P2;PMS_P1;PMS_P2;Temp;Humidity;BMP_temperature;BMP_pressure;BME280_temperature;BME280_humidity;BME280_pressure;Samples;Min_cycle;Max_cycle;Signal;HPM_P1;HPM_P2
2023/03/16 00:02:26;;;;;;;;;16.80;16.80;;;;;;;;5104687;29;8820;-73
2023/03/16 00:04:58;;;;;;;;;15.40;14.20;;;;;;;;5104898;29;8783;-73
2023/03/16 00:07:29;;;;;;;;;15.20;15.20;;;;;;;;5094340;29;9494;-73
2023/03/16 00:10:00;;;;;;;;;14.20;14.20;;;;;;;;5084356;29;8880;-73
2023/03/16 00:12:33;;;;;;;;;15.20;14.60;;;;;;;;5084941;29;8790;-73
2023/03/16 00:15:04;;;;;;;;;17.00;17.00;;;;;;;;5086505;29;8786;-73
2023/03/16 00:17:35;;;;;;;;;14.00;14.00;;;;;;;;5085946;29;8853;-75
2023/03/16 00:20:06;;;;;;;;;11.80;10.80;;;;;;;;5084894;29;8905;-74
2023/03/16 00:22:37;;;;;;;;;11.20;11.20;;;;;;;;5085884;29;8814;-74
2023/03/16 00:25:09;;;;;;;;;7.00;7.00;;;;;;;;5084744;29;8786;-74
2023/03/16 00:27:41;;;;;;;;;12.60;12.60;;;;;;;;5085025;29;8829;-74
2023/03/16 00:30:12;;;;;;;;;11.00;11.00;;;;;;;;5085095;29;8848;-74
2023/03/16 00:32:43;;;;;;;;;13.60;13.20;;;;;;;;5081705;29;8807;-73
2023/03/16 00:35:14;;;;;;;;;13.00;13.00;;;;;;;;5104189;29;8814;-74
2023/03/16 00:37:45;;;;;;;;;13.00;11.00;;;;;;;;5103958;29;8814;-75
2023/03/16 00:40:16;;;;;;;;;13.80;13.80;;;;;;;;5088416;29;8799;-75
2023/03/16 00:42:47;;;;;;;;;12.80;12.80;;;;;;;;5105391;29;8835;-75
2023/03/16 00:45:17;;;;;;;;;13.25;13.25;;;;;;;;5104081;29;8889;-75
2023/03/16 00:47:48;;;;;;;;;18.40;18.40;;;;;;;;5072020;29;8833;-75
2023/03/16 00:50:21;;;;;;;;;18.75;18.00;;;;;;;;5084176;29;8975;-75
2023/03/16 00:52:53;;;;;;;;;19.80;19.80;;;;;;;;5091845;29;8830;-75
2023/03/16 00:55:42;;;;;;;;;18.00;17.60;;;;;;;;5104136;29;8800;-75
2023/03/16 00:58:13;;;;;;;;;21.25;20.00;;;;;;;;5053794;29;9567;-75
2023/03/16 01:00:45;;;;;;;;;18.60;18.60;;;;;;;;5084441;29;8814;-75
2023/03/16 01:03:16;;;;;;;;;19.60;19.00;;;;;;;;5083939;29;9541;-75
2023/03/16 01:05:47;;;;;;;;;18.60;18.60;;;;;;;;5068422;29;8828;-73
2023/03/16 01:08:18;;;;;;;;;19.60;18.60;;;;;;;;5068298;29;8889;-74
2023/03/16 01:10:49;;;;;;;;;16.60;16.00;;;;;;;;5069393;29;8810;-74
2023/03/16 01:13:21;;;;;;;;;15.20;15.20;;;;;;;;5087759;29;8803;-74
2023/03/16 01:15:52;;;;;;;;;13.60;13.20;;;;;;;;5066132;29;8855;-74
2023/03/16 01:18:24;;;;;;;;;12.80;12.80;;;;;;;;5083510;29;8903;-74
2023/03/16 01:20:55;;;;;;;;;15.00;15.00;;;;;;;;5068167;29;8824;-74
2023/03/16 01:23:29;;;;;;;;;12.80;10.60;;;;;;;;5083819;29;8838;-73
2023/03/16 01:26:01;;;;;;;;;22.20;20.80;;;;;;;;5084916;29;8865;-73
2023/03/16 01:28:33;;;;;;;;;13.60;12.20;;;;;;;;5083686;29;9549;-73
2023/03/16 01:31:08;;;;;;;;;14.80;11.80;;;;;;;;5068565;29;8851;-73
2023/03/16 01:33:39;;;;;;;;;11.80;11.80;;;;;;;;5067891;29;8949;-73
2023/03/16 01:36:30;;;;;;;;;12.00;11.00;;;;;;;;5070520;29;8888;-73
2023/03/16 01:39:10;;;;;;;;;15.60;15.60;;;;;;;;5075249;29;8819;-73
2023/03/16 01:41:46;;;;;;;;;14.40;14.40;;;;;;;;5103352;29;8807;-75
2023/03/16 01:44:23;;;;;;;;;16.00;15.80;;;;;;;;5075101;29;8848;-74
2023/03/16 01:46:54;;;;;;;;;18.20;18.20;;;;;;;;5083962;29;8797;-75
2023/03/16 01:49:36;;;;;;;;;17.75;16.75;;;;;;;;5083310;29;8834;-74
2023/03/16 01:52:20;;;;;;;;;13.60;13.00;;;;;;;;5087176;29;9725;-75
2023/03/16 01:54:55;;;;;;;;;23.20;22.00;;;;;;;;5103256;29;9589;-75
2023/03/16 01:57:29;;;;;;;;;28.40;26.40;;;;;;;;5092980;29;8798;-74
2023/03/16 02:00:22;;;;;;;;;34.60;32.60;;;;;;;;5084669;29;8889;-74
2023/03/16 02:03:14;;;;;;;;;32.20;30.80;;;;;;;;5084676;29;8806;-76
2023/03/16 02:06:17;;;;;;;;;41.20;39.60;;;;;;;;5076477;29;8798;-76
2023/03/16 02:08:54;;;;;;;;;53.20;44.00;;;;;;;;5077541;29;8819;-76
2023/03/16 02:11:43;;;;;;;;;48.80;41.60;;;;;;;;5103327;29;8787;-76
2023/03/16 02:14:16;;;;;;;;;43.40;39.80;;;;;;;;5102850;29;9567;-75
2023/03/16 02:16:49;;;;;;;;;29.60;27.40;;;;;;;;5086850;29;9602;-75
2023/03/16 02:19:33;;;;;;;;;19.60;18.80;;;;;;;;5086855;29;8862;-75
2023/03/16 02:22:07;;;;;;;;;12.20;12.20;;;;;;;;5071282;29;8822;-76
2023/03/16 02:24:41;;;;;;;;;9.40;9.40;;;;;;;;5103900;29;8799;-75
2023/03/16 02:27:15;;;;;;;;;9.80;9.80;;;;;;;;5083449;29;8877;-77
2023/03/16 02:30:06;;;;;;;;;9.20;9.20;;;;;;;;5085310;29;8903;-76
2023/03/16 02:32:44;;;;;;;;;12.40;12.40;;;;;;;;5089458;29;8885;-76
2023/03/16 02:35:16;;;;;;;;;7.00;7.00;;;;;;;;5106386;29;8874;-79
2023/03/16 02:37:47;;;;;;;;;8.00;8.00;;;;;;;;5106104;29;8846;-80
2023/03/16 02:40:21;;;;;;;;;6.20;6.20;;;;;;;;5090320;29;8807;-79
2023/03/16 02:43:03;;;;;;;;;7.00;7.00;;;;;;;;5071213;29;9750;-80
2023/03/16 02:45:43;;;;;;;;;7.00;6.80;;;;;;;;5055616;29;8841;-80
2023/03/16 02:48:35;;;;;;;;;4.60;4.60;;;;;;;;5070741;29;8814;-81
2023/03/16 02:51:06;;;;;;;;;7.00;7.00;;;;;;;;5078696;29;8799;-74
2023/03/16 02:53:37;;;;;;;;;5.80;5.80;;;;;;;;5106503;29;8834;-74
2023/03/16 02:56:08;;;;;;;;;6.20;6.20;;;;;;;;5105940;29;8811;-74
2023/03/16 02:58:40;;;;;;;;;2.20;1.80;;;;;;;;5074486;29;8803;-76
2023/03/16 03:01:16;;;;;;;;;10.40;7.40;;;;;;;;5105766;29;8792;-75
2023/03/16 03:03:47;;;;;;;;;6.20;6.20;;;;;;;;5107100;29;8815;-76
2023/03/16 03:06:19;;;;;;;;;10.60;10.60;;;;;;;;5101673;29;8824;-77
2023/03/16 03:08:51;;;;;;;;;14.60;14.00;;;;;;;;5070514;29;8829;-75
2023/03/16 03:11:22;;;;;;;;;14.40;13.80;;;;;;;;5070273;29;8810;-76
2023/03/16 03:13:53;;;;;;;;;7.80;7.80;;;;;;;;5086095;29;8869;-76
2023/03/16 03:16:27;;;;;;;;;67.00;50.00;;;;;;;;5085596;29;8821;-76
2023/03/16 03:18:59;;;;;;;;;35.80;34.40;;;;;;;;5070659;29;8833;-76
2023/03/16 03:21:33;;;;;;;;;23.40;23.40;;;;;;;;5085058;29;8830;-76
2023/03/16 03:24:05;;;;;;;;;18.60;17.60;;;;;;;;5084140;29;8782;-76
2023/03/16 03:26:54;;;;;;;;;21.60;21.60;;;;;;;;5087478;29;8790;-75
2023/03/16 03:29:33;;;;;;;;;20.60;20.60;;;;;;;;5069942;29;8889;-75
2023/03/16 03:32:04;;;;;;;;;21.20;21.20;;;;;;;;5054397;29;8798;-74
2023/03/16 03:34:35;;;;;;;;;20.00;20.00;;;;;;;;5103752;29;8921;-76
2023/03/16 03:37:06;;;;;;;;;14.80;14.80;;;;;;;;5089738;29;8934;-76
2023/03/16 03:39:39;;;;;;;;;20.00;20.00;;;;;;;;5105114;29;8929;-76
2023/03/16 03:42:28;;;;;;;;;10.00;10.00;;;;;;;;5106105;29;8807;-75
2023/03/16 03:44:59;;;;;;;;;10.60;10.60;;;;;;;;5106048;29;8784;-75
2023/03/16 03:47:31;;;;;;;;;8.00;8.00;;;;;;;;5074510;29;8806;-75
2023/03/16 03:50:03;;;;;;;;;9.20;9.20;;;;;;;;5070180;29;8968;-76
2023/03/16 03:52:38;;;;;;;;;6.60;6.60;;;;;;;;5054728;29;9514;-76
2023/03/16 03:55:09;;;;;;;;;11.60;11.60;;;;;;;;5085267;29;8798;-76
2023/03/16 03:57:40;;;;;;;;;14.00;14.00;;;;;;;;5086318;29;8802;-78
2023/03/16 04:00:12;;;;;;;;;13.25;12.50;;;;;;;;5085369;29;8809;-79
2023/03/16 04:02:48;;;;;;;;;11.60;11.20;;;;;;;;5105866;29;11534;-78
2023/03/16 04:05:27;;;;;;;;;7.40;7.40;;;;;;;;5074334;29;8857;-79
2023/03/16 04:08:16;;;;;;;;;23.00;21.80;;;;;;;;5104787;29;9472;-79
2023/03/16 04:10:48;;;;;;;;;16.00;16.00;;;;;;;;5088770;29;8854;-78
2023/03/16 04:13:19;;;;;;;;;8.00;8.00;;;;;;;;5104461;29;8808;-79
2023/03/16 04:15:58;;;;;;;;;7.60;7.60;;;;;;;;5072774;29;8829;-78
2023/03/16 04:18:37;;;;;;;;;5.60;5.60;;;;;;;;5068945;29;8850;-78
2023/03/16 04:21:15;;;;;;;;;6.00;6.00;;;;;;;;5069237;29;8832;-78
2023/03/16 04:23:47;;;;;;;;;6.20;6.20;;;;;;;;5054233;29;8909;-79
2023/03/16 04:26:19;;;;;;;;;3.00;3.00;;;;;;;;5068938;29;8798;-79
2023/03/16 04:28:58;;;;;;;;;7.00;7.00;;;;;;;;5068659;29;8829;-78
2023/03/16 04:31:29;;;;;;;;;6.00;6.00;;;;;;;;5084948;29;8833;-78
2023/03/16 04:34:01;;;;;;;;;6.60;6.60;;;;;;;;5068855;29;8794;-78
2023/03/16 04:36:32;;;;;;;;;8.00;6.20;;;;;;;;5070449;29;8812;-78
2023/03/16 04:39:22;;;;;;;;;12.60;12.00;;;;;;;;5085389;29;9568;-77
2023/03/16 04:41:54;;;;;;;;;5.40;5.40;;;;;;;;5084252;29;8948;-78
2023/03/16 04:44:28;;;;;;;;;7.20;7.20;;;;;;;;5085318;29;8853;-85
2023/03/16 04:47:00;;;;;;;;;5.60;5.00;;;;;;;;5084237;29;8795;-80
2023/03/16 04:49:39;;;;;;;;;7.00;6.20;;;;;;;;5095084;29;8923;-76
2023/03/16 04:52:29;;;;;;;;;7.60;7.40;;;;;;;;5102071;29;8823;-76
2023/03/16 04:55:00;;;;;;;;;6.00;6.00;;;;;;;;5087564;29;8791;-76
2023/03/16 04:57:31;;;;;;;;;7.40;7.40;;;;;;;;5085154;29;8811;-75
2023/03/16 05:00:22;;;;;;;;;7.80;7.80;;;;;;;;5086300;29;8826;-75
2023/03/16 05:03:03;;;;;;;;;12.80;12.80;;;;;;;;5102076;29;8803;-74
2023/03/16 05:05:35;;;;;;;;;13.80;13.80;;;;;;;;5057949;29;8818;-76
2023/03/16 05:08:24;;;;;;;;;8.00;8.00;;;;;;;;5082729;29;8782;-75
2023/03/16 05:10:58;;;;;;;;;20.20;20.20;;;;;;;;5082100;29;8865;-75
2023/03/16 05:13:30;;;;;;;;;6.80;6.80;;;;;;;;5082238;29;8808;-76
2023/03/16 05:16:03;;;;;;;;;4.00;4.00;;;;;;;;5100931;29;9033;-75
2023/03/16 05:18:39;;;;;;;;;1.00;1.00;;;;;;;;5086073;29;8898;-80
2023/03/16 05:21:11;;;;;;;;;5.60;4.40;;;;;;;;5101616;29;9562;-78
2023/03/16 05:24:05;;;;;;;;;3.40;3.40;;;;;;;;5094723;29;8823;-78
2023/03/16 05:26:36;;;;;;;;;44.20;40.60;;;;;;;;5081690;29;8892;-76
2023/03/16 05:29:12;;;;;;;;;7.60;7.40;;;;;;;;5081753;29;8907;-77
2023/03/16 05:31:45;;;;;;;;;5.60;5.60;;;;;;;;5081916;29;8806;-78
2023/03/16 05:34:20;;;;;;;;;2.20;2.20;;;;;;;;5065984;29;8976;-78
2023/03/16 05:36:51;;;;;;;;;1.00;1.00;;;;;;;;5081797;29;8929;-78
2023/03/16 05:39:25;;;;;;;;;2.00;2.00;;;;;;;;5082043;29;8813;-79
2023/03/16 05:41:56;;;;;;;;;2.00;2.00;;;;;;;;5081931;29;8814;-77
2023/03/16 05:44:36;;;;;;;;;2.80;2.80;;;;;;;;5065784;29;8810;-79
2023/03/16 05:47:35;;;;;;;;;2.50;2.50;;;;;;;;5095597;29;8844;-77
2023/03/16 05:50:08;;;;;;;;;2.20;2.20;;;;;;;;5084145;29;8829;-76
2023/03/16 05:52:46;;;;;;;;;4.75;4.75;;;;;;;;5074674;29;8859;-77
2023/03/16 05:55:23;;;;;;;;;5.80;5.80;;;;;;;;5088165;29;8802;-77
2023/03/16 05:58:00;;;;;;;;;5.00;5.00;;;;;;;;5083632;29;8805;-79
2023/03/16 06:00:49;;;;;;;;;4.25;4.25;;;;;;;;5084975;29;8844;-79
2023/03/16 06:03:31;;;;;;;;;3.75;3.75;;;;;;;;5067861;29;8810;-79
2023/03/16 06:06:03;;;;;;;;;3.00;3.00;;;;;;;;5084946;29;8801;-78
2023/03/16 06:08:39;;;;;;;;;8.00;8.00;;;;;;;;5088161;29;8821;-77
2023/03/16 06:11:13;;;;;;;;;6.00;6.00;;;;;;;;5071859;29;8805;-76
2023/03/16 06:13:45;;;;;;;;;9.75;9.75;;;;;;;;5071555;29;8810;-78
2023/03/16 06:16:17;;;;;;;;;12.00;11.20;;;;;;;;5088065;29;8790;-78
2023/03/16 06:19:06;;;;;;;;;9.75;9.75;;;;;;;;5073595;29;9569;-77
2023/03/16 06:21:37;;;;;;;;;5.00;5.00;;;;;;;;5087570;29;8837;-77
2023/03/16 06:24:14;;;;;;;;;6.50;6.50;;;;;;;;5087993;29;8934;-77
2023/03/16 06:27:03;;;;;;;;;3.00;3.00;;;;;;;;5087166;29;8825;-77
2023/03/16 06:29:40;;;;;;;;;5.50;5.50;;;;;;;;5056431;29;8837;-76
2023/03/16 06:32:12;;;;;;;;;3.25;3.25;;;;;;;;5070848;29;8818;-77
2023/03/16 06:34:43;;;;;;;;;3.25;3.25;;;;;;;;5087635;29;8819;-82
2023/03/16 06:37:14;;;;;;;;;6.75;4.25;;;;;;;;5086803;29;8813;-81
2023/03/16 06:39:45;;;;;;;;;4.00;4.00;;;;;;;;5086829;29;8911;-82
2023/03/16 06:42:34;;;;;;;;;7.25;7.25;;;;;;;;5087975;29;8844;-83
2023/03/16 06:45:06;;;;;;;;;5.50;5.50;;;;;;;;5070989;29;8806;-83
2023/03/16 06:47:38;;;;;;;;;4.00;4.00;;;;;;;;5071051;29;8818;-83
2023/03/16 06:50:10;;;;;;;;;2.50;2.50;;;;;;;;5087211;29;8833;-80
2023/03/16 06:52:43;;;;;;;;;3.25;3.25;;;;;;;;5070762;29;8802;-81
2023/03/16 06:55:13;;;;;;;;;2.67;2.67;;;;;;;;5086601;29;8798;-80
2023/03/16 06:57:48;;;;;;;;;3.00;3.00;;;;;;;;5071366;29;9537;-81
2023/03/16 07:00:37;;;;;;;;;2.50;2.25;;;;;;;;5086158;29;8920;-81
2023/03/16 07:03:08;;;;;;;;;2.67;2.67;;;;;;;;5086304;29;8782;-81
2023/03/16 07:05:42;;;;;;;;;3.00;3.00;;;;;;;;5085045;29;11531;-76
2023/03/16 07:08:14;;;;;;;;;3.00;3.00;;;;;;;;5105881;29;8791;-79
2023/03/16 07:11:03;;;;;;;;;1.75;1.75;;;;;;;;5104935;29;8914;-77
2023/03/16 07:13:52;;;;;;;;;12.20;12.20;;;;;;;;5107131;29;8799;-78
2023/03/16 07:16:25;;;;;;;;;11.00;11.00;;;;;;;;5105445;29;8830;-78
2023/03/16 07:18:57;;;;;;;;;9.40;9.40;;;;;;;;5088793;29;8828;-78
2023/03/16 07:21:30;;;;;;;;;7.75;7.75;;;;;;;;5104470;29;8858;-79
2023/03/16 07:24:02;;;;;;;;;13.60;12.80;;;;;;;;5089631;29;8815;-76
2023/03/16 07:26:41;;;;;;;;;6.50;6.50;;;;;;;;5070457;29;9546;-76
2023/03/16 07:29:13;;;;;;;;;5.75;5.75;;;;;;;;5085556;29;8838;-76
2023/03/16 07:31:44;;;;;;;;;3.40;3.40;;;;;;;;5085678;29;8813;-77
2023/03/16 07:34:21;;;;;;;;;10.20;9.40;;;;;;;;5087194;29;9542;-77
2023/03/16 07:36:57;;;;;;;;;7.60;7.60;;;;;;;;5087298;29;9608;-76
2023/03/16 07:39:31;;;;;;;;;4.50;4.50;;;;;;;;5070142;29;8834;-76
2023/03/16 07:42:22;;;;;;;;;8.00;8.00;;;;;;;;5086647;29;8830;-75
2023/03/16 07:45:04;;;;;;;;;4.00;4.00;;;;;;;;5085632;29;8825;-76
2023/03/16 07:47:35;;;;;;;;;1.50;1.50;;;;;;;;5085941;29;8821;-76
2023/03/16 07:50:32;;;;;;;;;2.50;2.50;;;;;;;;5083566;29;8845;-76
2023/03/16 07:53:04;;;;;;;;;3.00;3.00;;;;;;;;5085422;29;8966;-76
2023/03/16 07:55:38;;;;;;;;;2.50;2.50;;;;;;;;5069662;29;8817;-76
2023/03/16 07:58:10;;;;;;;;;3.60;3.60;;;;;;;;5069409;29;8806;-76
2023/03/16 08:00:43;;;;;;;;;3.00;3.00;;;;;;;;5069610;29;8905;-76
2023/03/16 08:03:14;;;;;;;;;4.67;4.67;;;;;;;;5069511;29;8790;-76
2023/03/16 08:05:45;;;;;;;;;0.50;0.50;;;;;;;;5085113;29;8940;-76
2023/03/16 08:08:20;;;;;;;;;1.00;1.00;;;;;;;;5069383;29;8916;-76
2023/03/16 08:10:52;;;;;;;;;2.25;2.25;;;;;;;;5069238;29;8810;-76
2023/03/16 08:13:26;;;;;;;;;1.00;1.00;;;;;;;;5085179;29;8832;-76
2023/03/16 08:16:00;;;;;;;;;8.00;8.00;;;;;;;;5069135;29;8836;-76
2023/03/16 08:18:41;;;;;;;;;3.75;3.75;;;;;;;;5084673;29;8956;-76
2023/03/16 08:21:31;;;;;;;;;5.25;5.00;;;;;;;;5086203;29;8892;-76
2023/03/16 08:24:03;;;;;;;;;3.00;3.00;;;;;;;;5084787;29;8939;-76
2023/03/16 08:26:35;;;;;;;;;1.00;1.00;;;;;;;;5084778;29;8793;-76
2023/03/16 08:29:07;;;;;;;;;1.00;1.00;;;;;;;;5083906;29;8838;-76
2023/03/16 08:31:41;;;;;;;;;2.25;2.25;;;;;;;;5084901;29;8818;-76
2023/03/16 08:34:30;;;;;;;;;3.75;3.75;;;;;;;;5085593;29;8802;-76
2023/03/16 08:37:03;;;;;;;;;8.00;8.00;;;;;;;;5084442;29;8832;-76
2023/03/16 08:39:34;;;;;;;;;3.00;3.00;;;;;;;;5084702;29;8809;-76
2023/03/16 08:42:09;;;;;;;;;2.00;2.00;;;;;;;;5084705;29;8987;-77
2023/03/16 08:44:47;;;;;;;;;4.00;4.00;;;;;;;;5084500;29;8821;-76
2023/03/16 08:47:18;;;;;;;;;5.00;5.00;;;;;;;;5084162;29;8801;-76
2023/03/16 08:50:08;;;;;;;;;3.00;3.00;;;;;;;;5084348;29;8841;-76
2023/03/16 08:52:40;;;;;;;;;2.00;2.00;;;;;;;;5068554;29;8820;-76
2023/03/16 08:55:12;;;;;;;;;0.25;0.25;;;;;;;;5085417;29;8798;-76
2023/03/16 08:57:45;;;;;;;;;1.25;1.25;;;;;;;;5085493;29;8805;-76
2023/03/16 09:00:35;;;;;;;;;2.00;2.00;;;;;;;;5085518;29;8965;-76
2023/03/16 09:03:06;;;;;;;;;11.25;10.25;;;;;;;;5053011;29;8820;-76
2023/03/16 09:05:37;;;;;;;;;11.00;11.00;;;;;;;;5068433;29;8789;-76
2023/03/16 09:08:08;;;;;;;;;12.00;12.00;;;;;;;;5084218;29;8793;-76
2023/03/16 09:10:39;;;;;;;;;18.00;18.00;;;;;;;;5083654;29;8834;-76
2023/03/16 09:13:10;;;;;;;;;9.00;9.00;;;;;;;;5100016;29;8802;-76
2023/03/16 09:15:41;;;;;;;;;8.50;8.50;;;;;;;;5085304;29;8952;-76
2023/03/16 09:18:12;;;;;;;;;6.50;6.50;;;;;;;;5083464;29;8857;-76
2023/03/16 09:20:44;;;;;;;;;4.50;4.50;;;;;;;;5085091;29;8800;-76
2023/03/16 09:23:15;;;;;;;;;9.50;9.50;;;;;;;;5083712;29;8899;-76
2023/03/16 09:25:46;;;;;;;;;12.33;12.33;;;;;;;;5083705;29;8794;-78
2023/03/16 09:28:18;;;;;;;;;11.60;11.60;;;;;;;;5083762;29;8802;-76
2023/03/16 09:30:49;;;;;;;;;5.25;5.25;;;;;;;;5084755;29;8842;-78
2023/03/16 09:33:21;;;;;;;;;7.75;7.75;;;;;;;;5067954;29;8818;-78
2023/03/16 09:35:52;;;;;;;;;4.75;4.75;;;;;;;;5068418;29;8775;-79
2023/03/16 09:38:43;;;;;;;;;5.00;5.00;;;;;;;;5083880;29;9510;-75
2023/03/16 09:41:17;;;;;;;;;5.75;5.75;;;;;;;;5083314;29;8809;-76
2023/03/16 09:43:51;;;;;;;;;5.75;5.75;;;;;;;;5084966;29;8782;-75
2023/03/16 09:46:42;;;;;;;;;4.00;4.00;;;;;;;;5067855;29;9525;-76
2023/03/16 09:49:19;;;;;;;;;5.25;5.25;;;;;;;;5083451;29;8826;-77
2023/03/16 09:52:09;;;;;;;;;8.75;8.75;;;;;;;;5067899;29;8802;-77
2023/03/16 09:54:46;;;;;;;;;2.00;2.00;;;;;;;;5100007;29;9569;-78
2023/03/16 09:57:39;;;;;;;;;7.50;7.50;;;;;;;;5083719;29;8797;-78
2023/03/16 10:00:51;;;;;;;;;5.00;5.00;;;;;;;;5083744;29;9585;-77
2023/03/16 10:03:28;;;;;;;;;6.00;6.00;;;;;;;;5041716;29;8845;-77
2023/03/16 10:06:01;;;;;;;;;4.00;4.00;;;;;;;;5084599;29;8818;-77
2023/03/16 10:09:02;;;;;;;;;6.75;6.75;;;;;;;;5084761;29;8846;-79
2023/03/16 10:11:41;;;;;;;;;6.00;6.00;;;;;;;;5083748;29;8795;-76
2023/03/16 10:14:24;;;;;;;;;9.25;9.25;;;;;;;;5084580;29;9656;-76
2023/03/16 10:17:10;;;;;;;;;6.75;6.75;;;;;;;;5051923;29;8833;-77
2023/03/16 10:19:47;;;;;;;;;10.75;10.25;;;;;;;;5067455;29;8810;-77
2023/03/16 10:22:20;;;;;;;;;5.50;5.50;;;;;;;;5083366;29;8802;-76
2023/03/16 10:25:11;;;;;;;;;7.25;7.25;;;;;;;;5079686;29;8840;-75
2023/03/16 10:27:44;;;;;;;;;7.25;7.25;;;;;;;;5067801;29;8813;-76
2023/03/16 10:30:30;;;;;;;;;7.67;7.67;;;;;;;;5086217;29;8821;-76
2023/03/16 10:33:04;;;;;;;;;5.00;5.00;;;;;;;;5068146;29;8945;-82
2023/03/16 10:35:41;;;;;;;;;4.25;4.25;;;;;;;;5067838;29;8959;-78
2023/03/16 10:38:48;;;;;;;;;4.00;4.00;;;;;;;;5051988;29;8806;-78
2023/03/16 10:41:22;;;;;;;;;4.00;4.00;;;;;;;;5022476;29;8941;-77
2023/03/16 10:43:56;;;;;;;;;2.50;2.50;;;;;;;;5087858;29;8819;-79
2023/03/16 10:46:27;;;;;;;;;2.50;2.50;;;;;;;;5082459;29;8821;-75
2023/03/16 10:49:22;;;;;;;;;63.60;52.60;;;;;;;;5085260;29;8833;-75
2023/03/16 10:51:58;;;;;;;;;21.40;21.40;;;;;;;;5086159;29;8819;-75
2023/03/16 10:54:32;;;;;;;;;16.60;16.60;;;;;;;;5101237;29;8815;-76
2023/03/16 10:57:19;;;;;;;;;5.25;5.25;;;;;;;;5106167;29;8930;-75
2023/03/16 10:59:51;;;;;;;;;5.25;5.25;;;;;;;;5078296;29;8817;-75
2023/03/16 11:02:29;;;;;;;;;4.00;4.00;;;;;;;;5092309;29;8831;-77
2023/03/16 11:05:18;;;;;;;;;20.00;19.80;;;;;;;;5098770;29;8812;-76
2023/03/16 11:07:50;;;;;;;;;8.25;8.25;;;;;;;;5105770;29;8858;-76
2023/03/16 11:10:35;;;;;;;;;8.50;8.50;;;;;;;;5105340;29;8916;-76
2023/03/16 11:13:09;;;;;;;;;11.75;11.75;;;;;;;;5076195;29;8790;-76
2023/03/16 11:16:00;;;;;;;;;6.00;6.00;;;;;;;;5087107;29;8833;-76
2023/03/16 11:18:34;;;;;;;;;3.75;3.75;;;;;;;;5085336;29;8876;-76
2023/03/16 11:21:11;;;;;;;;;6.25;6.25;;;;;;;;5087140;29;8781;-76
2023/03/16 11:23:48;;;;;;;;;5.75;5.75;;;;;;;;5094804;29;8807;-77
2023/03/16 11:26:22;;;;;;;;;5.00;5.00;;;;;;;;5105741;29;9075;-76
2023/03/16 11:29:01;;;;;;;;;10.00;10.00;;;;;;;;5083401;29;8833;-76
2023/03/16 11:32:01;;;;;;;;;5.00;5.00;;;;;;;;5061265;29;8816;-77
2023/03/16 11:34:34;;;;;;;;;5.00;5.00;;;;;;;;5096510;29;8811;-76
2023/03/16 11:37:18;;;;;;;;;5.00;5.00;;;;;;;;5073630;29;8792;-76
2023/03/16 11:39:52;;;;;;;;;5.75;5.75;;;;;;;;5106332;29;8834;-76
2023/03/16 11:42:32;;;;;;;;;5.50;5.00;;;;;;;;5105236;29;8780;-76
2023/03/16 11:45:10;;;;;;;;;7.50;7.25;;;;;;;;5105273;29;8811;-77
2023/03/16 11:48:05;;;;;;;;;9.00;9.00;;;;;;;;5073509;29;8826;-76
2023/03/16 11:50:36;;;;;;;;;9.75;9.75;;;;;;;;5088871;29;8842;-77
2023/03/16 11:53:19;;;;;;;;;13.60;13.60;;;;;;;;5104139;29;8804;-78
2023/03/16 11:56:08;;;;;;;;;10.00;10.00;;;;;;;;5102235;29;8815;-77
2023/03/16 11:59:03;;;;;;;;;3.50;3.50;;;;;;;;5104549;29;8819;-77
2023/03/16 12:01:53;;;;;;;;;5.50;5.50;;;;;;;;5080922;29;8798;-77
2023/03/16 12:04:24;;;;;;;;;3.00;3.00;;;;;;;;5086132;29;8790;-78
2023/03/16 12:07:19;;;;;;;;;4.00;4.00;;;;;;;;5086818;29;8932;-77
2023/03/16 12:09:53;;;;;;;;;5.00;5.00;;;;;;;;5068574;29;8821;-77
2023/03/16 12:12:38;;;;;;;;;7.20;7.20;;;;;;;;5085938;29;8802;-77
2023/03/16 12:15:10;;;;;;;;;10.00;10.00;;;;;;;;5069199;29;9604;-78
2023/03/16 12:18:01;;;;;;;;;6.50;6.50;;;;;;;;5085791;29;8878;-78
2023/03/16 12:20:38;;;;;;;;;10.75;10.75;;;;;;;;5088590;29;8830;-76
2023/03/16 12:23:14;;;;;;;;;3.75;3.75;;;;;;;;5105741;29;8827;-77
2023/03/16 12:25:47;;;;;;;;;6.75;6.00;;;;;;;;5104662;29;8813;-78
2023/03/16 12:28:23;;;;;;;;;5.80;5.00;;;;;;;;5102572;29;8932;-78
2023/03/16 12:30:58;;;;;;;;;4.00;4.00;;;;;;;;5071042;29;8847;-77
2023/03/16 12:33:37;;;;;;;;;8.00;8.00;;;;;;;;5072535;29;8810;-77
2023/03/16 12:36:37;;;;;;;;;11.25;11.00;;;;;;;;5097160;29;8825;-76
2023/03/16 12:39:21;;;;;;;;;6.00;6.00;;;;;;;;5069000;29;8863;-78
2023/03/16 12:42:13;;;;;;;;;54.80;45.80;;;;;;;;5067080;29;8819;-79
2023/03/16 12:45:03;;;;;;;;;11.20;11.20;;;;;;;;5087896;29;8819;-80
2023/03/16 12:47:34;;;;;;;;;15.20;15.20;;;;;;;;5088386;29;9510;-79
2023/03/16 12:50:11;;;;;;;;;9.00;9.00;;;;;;;;5088030;29;8845;-79
2023/03/16 12:52:50;;;;;;;;;9.75;9.75;;;;;;;;5073679;29;9617;-79
2023/03/16 12:55:33;;;;;;;;;6.80;6.80;;;;;;;;5102811;29;8815;-79
2023/03/16 12:58:06;;;;;;;;;15.40;15.40;;;;;;;;5103765;29;8792;-78
2023/03/16 13:00:39;;;;;;;;;11.20;11.20;;;;;;;;5096673;29;8837;-78
2023/03/16 13:03:30;;;;;;;;;3.25;3.25;;;;;;;;5070481;29;8810;-79
2023/03/16 13:06:02;;;;;;;;;9.75;9.75;;;;;;;;5052721;29;8806;-78
2023/03/16 13:08:41;;;;;;;;;10.75;10.75;;;;;;;;5102419;29;8823;-79
2023/03/16 13:11:13;;;;;;;;;14.20;9.60;;;;;;;;5087469;29;8877;-79
2023/03/16 13:14:11;;;;;;;;;11.60;11.60;;;;;;;;5087579;29;8813;-78
2023/03/16 13:16:44;;;;;;;;;13.40;13.40;;;;;;;;5102645;29;8834;-80
2023/03/16 13:19:28;;;;;;;;;15.80;15.80;;;;;;;;5103121;29;8937;-79
2023/03/16 13:22:20;;;;;;;;;14.80;13.40;;;;;;;;5097761;29;8864;-78
2023/03/16 13:24:53;;;;;;;;;20.60;20.60;;;;;;;;5084858;29;8814;-79
2023/03/16 13:27:33;;;;;;;;;18.00;17.40;;;;;;;;5068933;29;8841;-80
2023/03/16 13:30:24;;;;;;;;;30.00;26.80;;;;;;;;5085929;29;8802;-80
2023/03/16 13:32:59;;;;;;;;;19.80;19.20;;;;;;;;5089073;29;8806;-80
2023/03/16 13:35:30;;;;;;;;;27.40;24.20;;;;;;;;5078717;29;9593;-79
2023/03/16 13:38:04;;;;;;;;;16.60;16.20;;;;;;;;5085385;29;8808;-79
2023/03/16 13:40:44;;;;;;;;;16.20;16.20;;;;;;;;5092196;29;8897;-80
2023/03/16 13:43:37;;;;;;;;;15.00;15.00;;;;;;;;5085008;29;8948;-80
2023/03/16 13:46:15;;;;;;;;;13.60;13.20;;;;;;;;5089174;29;8796;-80
2023/03/16 13:48:47;;;;;;;;;11.60;11.40;;;;;;;;5103152;29;8873;-80
2023/03/16 13:51:22;;;;;;;;;17.00;16.60;;;;;;;;5087120;29;8815;-80
2023/03/16 13:53:53;;;;;;;;;13.80;13.40;;;;;;;;5095147;29;8829;-80
2023/03/16 13:56:28;;;;;;;;;19.50;19.50;;;;;;;;5067579;29;9521;-80
2023/03/16 13:58:59;;;;;;;;;14.80;14.80;;;;;;;;5083361;29;11652;-81
2023/03/16 14:01:31;;;;;;;;;30.00;27.80;;;;;;;;5067670;29;8837;-81
2023/03/16 14:04:10;;;;;;;;;14.80;14.80;;;;;;;;5067554;29;8809;-81
2023/03/16 14:06:50;;;;;;;;;10.80;8.80;;;;;;;;5068119;29;8836;-80
2023/03/16 14:09:24;;;;;;;;;10.60;9.20;;;;;;;;5083346;29;9565;-80
2023/03/16 14:11:56;;;;;;;;;18.00;15.60;;;;;;;;5084769;29;8806;-79
2023/03/16 14:14:35;;;;;;;;;46.80;39.20;;;;;;;;5083068;29;8793;-79
2023/03/16 14:17:11;;;;;;;;;17.20;16.60;;;;;;;;5067492;29;8878;-78
2023/03/16 14:19:47;;;;;;;;;13.40;13.40;;;;;;;;5052056;29;8812;-79
2023/03/16 14:22:38;;;;;;;;;8.80;8.00;;;;;;;;5083079;29;8826;-80
2023/03/16 14:25:16;;;;;;;;;14.40;14.20;;;;;;;;5068316;29;8826;-77
2023/03/16 14:27:47;;;;;;;;;29.80;29.00;;;;;;;;5084324;29;8810;-80
2023/03/16 14:30:24;;;;;;;;;31.00;31.00;;;;;;;;5071230;29;9546;-79
2023/03/16 14:33:00;;;;;;;;;24.20;23.40;;;;;;;;5055660;29;8822;-80
2023/03/16 14:35:41;;;;;;;;;14.60;14.60;;;;;;;;5071166;29;8794;-77
2023/03/16 14:38:20;;;;;;;;;17.60;17.60;;;;;;;;5089116;29;9620;-81
2023/03/16 14:41:02;;;;;;;;;18.40;18.00;;;;;;;;5106489;29;8838;-80
2023/03/16 14:43:39;;;;;;;;;14.40;14.40;;;;;;;;5074936;29;8779;-81
2023/03/16 14:46:13;;;;;;;;;15.00;15.00;;;;;;;;5106573;29;8803;-80
2023/03/16 14:48:44;;;;;;;;;17.80;17.80;;;;;;;;5105975;29;8799;-79
2023/03/16 14:51:15;;;;;;;;;24.80;24.20;;;;;;;;5101089;29;8912;-79
2023/03/16 14:53:46;;;;;;;;;19.50;18.75;;;;;;;;5071500;29;8818;-79
2023/03/16 14:56:17;;;;;;;;;22.80;22.00;;;;;;;;5086846;29;10844;-79
2023/03/16 14:58:49;;;;;;;;;18.20;18.20;;;;;;;;5077835;29;8838;-78
2023/03/16 15:01:20;;;;;;;;;20.80;20.80;;;;;;;;5070556;29;8837;-79
2023/03/16 15:03:51;;;;;;;;;15.50;15.50;;;;;;;;5085797;29;8860;-78
2023/03/16 15:06:22;;;;;;;;;17.80;17.00;;;;;;;;5086578;29;8821;-75
2023/03/16 15:08:53;;;;;;;;;15.40;15.00;;;;;;;;5103910;29;8880;-77
2023/03/16 15:11:25;;;;;;;;;13.40;13.20;;;;;;;;5104125;29;8822;-76
2023/03/16 15:14:13;;;;;;;;;15.20;14.80;;;;;;;;5105064;29;8819;-76
2023/03/16 15:16:44;;;;;;;;;14.00;14.00;;;;;;;;5104184;29;9559;-80
2023/03/16 15:19:15;;;;;;;;;13.50;13.25;;;;;;;;5072115;29;8830;-78
2023/03/16 15:21:46;;;;;;;;;16.20;16.20;;;;;;;;5096822;29;8930;-80
2023/03/16 15:24:16;;;;;;;;;21.25;20.25;;;;;;;;5084225;29;9573;-76
2023/03/16 15:26:47;;;;;;;;;23.25;21.75;;;;;;;;5067776;29;11614;-78
2023/03/16 15:29:37;;;;;;;;;20.80;20.80;;;;;;;;5084088;29;10522;-78
2023/03/16 15:32:11;;;;;;;;;19.25;19.25;;;;;;;;5084963;29;8830;-78
2023/03/16 15:34:45;;;;;;;;;19.60;19.60;;;;;;;;5085217;29;11538;-77
2023/03/16 15:37:17;;;;;;;;;21.00;20.20;;;;;;;;5096148;29;8835;-77
2023/03/16 15:39:48;;;;;;;;;11.80;11.80;;;;;;;;5104088;29;8814;-79
2023/03/16 15:42:19;;;;;;;;;14.60;14.60;;;;;;;;5103274;29;8893;-78